sensor_id;sensor_type;location;lat;lon;timestamp;P1;durP1;ratioP1;P2;durP2;ratioP2
78903;SDS011;68291;49.602;8.722;2023-09-19T00:00:45;1.83;;;1.40;;
78903;SDS011;68291;49.602;8.722;2023-09-19T00:03:44;2.30;;;1.53;;
78903;SDS011;68291;49.602;8.722;2023-09-19T00:06:37;2.43;;;1.50;;
78903;SDS011;68291;49.602;8.722;2023-09-19T00:09:38;2.17;;;1.50;;
78903;SDS011;68291;49.602;8.722;2023-09-19T00:12:42;2.43;;;1.40;;
78903;SDS011;68291;49.602;8.722;2023-09-19T00:15:36;3.20;;;1.77;;
78903;SDS011;68291;49.602;8.722;2023-09-19T00:18:12;3.67;;;1.40;;
78903;SDS011;68291;49.602;8.722;2023-09-19T00:24:31;1.87;;;1.50;;
78903;SDS011;68291;49.602;8.722;2023-09-19T00:27:25;4.17;;;1.40;;
78903;SDS011;68291;49.602;8.722;2023-09-19T00:30:06;3.10;;;1.40;;
78903;SDS011;68291;49.602;8.722;2023-09-19T00:32:58;2.07;;;1.30;;
78903;SDS011;68291;49.602;8.722;2023-09-19T00:35:54;2.03;;;1.37;;
78903;SDS011;68291;49.602;8.722;2023-09-19T00:38:50;2.53;;;1.33;;
78903;SDS011;68291;49.602;8.722;2023-09-19T00:41:31;3.67;;;1.50;;
78903;SDS011;68291;49.602;8.722;2023-09-19T00:44:33;2.13;;;1.50;;
78903;SDS011;68291;49.602;8.722;2023-09-19T00:47:27;2.70;;;1.50;;
78903;SDS011;68291;49.602;8.722;2023-09-19T00:50:24;1.83;;;1.40;;
78903;SDS011;68291;49.602;8.722;2023-09-19T00:53:13;1.73;;;1.50;;
78903;SDS011;68291;49.602;8.722;2023-09-19T00:55:58;2.10;;;1.47;;
78903;SDS011;68291;49.602;8.722;2023-09-19T00:58:31;3.67;;;1.40;;
78903;SDS011;68291;49.602;8.722;2023-09-19T01:01:02;2.80;;;1.50;;
78903;SDS011;68291;49.602;8.722;2023-09-19T01:03:53;3.63;;;1.60;;
78903;SDS011;68291;49.602;8.722;2023-09-19T01:06:43;3.23;;;1.60;;
78903;SDS011;68291;49.602;8.722;2023-09-19T01:09:30;3.23;;;1.63;;
78903;SDS011;68291;49.602;8.722;2023-09-19T01:12:35;3.27;;;1.70;;
78903;SDS011;68291;49.602;8.722;2023-09-19T01:15:49;4.27;;;1.50;;
78903;SDS011;68291;49.602;8.722;2023-09-19T01:18:52;1.87;;;1.37;;
78903;SDS011;68291;49.602;8.722;2023-09-19T01:22:23;2.83;;;1.60;;
78903;SDS011;68291;49.602;8.722;2023-09-19T01:25:30;4.10;;;1.40;;
78903;SDS011;68291;49.602;8.722;2023-09-19T01:32:15;3.30;;;1.60;;
78903;SDS011;68291;49.602;8.722;2023-09-19T01:35:03;3.83;;;1.83;;
78903;SDS011;68291;49.602;8.722;2023-09-19T01:37:47;2.27;;;1.53;;
78903;SDS011;68291;49.602;8.722;2023-09-19T01:40:48;3.37;;;1.70;;
78903;SDS011;68291;49.602;8.722;2023-09-19T01:43:41;4.50;;;1.47;;
78903;SDS011;68291;49.602;8.722;2023-09-19T01:46:28;2.80;;;1.60;;
78903;SDS011;68291;49.602;8.722;2023-09-19T01:52:27;3.97;;;1.37;;
78903;SDS011;68291;49.602;8.722;2023-09-19T01:55:14;5.70;;;1.93;;
78903;SDS011;68291;49.602;8.722;2023-09-19T01:58:14;2.60;;;1.80;;
78903;SDS011;68291;49.602;8.722;2023-09-19T02:01:08;2.43;;;1.60;;
78903;SDS011;68291;49.602;8.722;2023-09-19T02:04:04;4.73;;;1.80;;
78903;SDS011;68291;49.602;8.722;2023-09-19T02:06:41;2.80;;;1.70;;
78903;SDS011;68291;49.602;8.722;2023-09-19T02:09:29;3.53;;;1.60;;
78903;SDS011;68291;49.602;8.722;2023-09-19T02:12:05;3.93;;;1.70;;
78903;SDS011;68291;49.602;8.722;2023-09-19T02:14:49;2.50;;;1.60;;
78903;SDS011;68291;49.602;8.722;2023-09-19T02:17:45;3.40;;;1.60;;
78903;SDS011;68291;49.602;8.722;2023-09-19T02:20:54;2.53;;;1.83;;
78903;SDS011;68291;49.602;8.722;2023-09-19T02:26:43;3.93;;;2.10;;
78903;SDS011;68291;49.602;8.722;2023-09-19T02:29:30;2.97;;;1.73;;
78903;SDS011;68291;49.602;8.722;2023-09-19T02:32:17;2.27;;;1.57;;
78903;SDS011;68291;49.602;8.722;2023-09-19T02:35:10;4.03;;;1.70;;
78903;SDS011;68291;49.602;8.722;2023-09-19T02:38:06;2.93;;;1.80;;
78903;SDS011;68291;49.602;8.722;2023-09-19T02:44:04;4.10;;;1.77;;
78903;SDS011;68291;49.602;8.722;2023-09-19T02:46:42;4.67;;;1.80;;
78903;SDS011;68291;49.602;8.722;2023-09-19T02:49:17;3.00;;;1.90;;
78903;SDS011;68291;49.602;8.722;2023-09-19T02:51:52;2.90;;;1.60;;
78903;SDS011;68291;49.602;8.722;2023-09-19T02:54:41;2.70;;;1.70;;
78903;SDS011;68291;49.602;8.722;2023-09-19T03:00:34;4.13;;;1.93;;
78903;SDS011;68291;49.602;8.722;2023-09-19T03:03:18;3.10;;;1.80;;
78903;SDS011;68291;49.602;8.722;2023-09-19T03:06:01;2.17;;;1.70;;
78903;SDS011;68291;49.602;8.722;2023-09-19T03:08:46;3.97;;;2.00;;
78903;SDS011;68291;49.602;8.722;2023-09-19T03:11:37;3.90;;;1.90;;
78903;SDS011;68291;49.602;8.722;2023-09-19T03:14:29;5.00;;;2.07;;
78903;SDS011;68291;49.602;8.722;2023-09-19T03:17:14;1.80;;;1.63;;
78903;SDS011;68291;49.602;8.722;2023-09-19T03:19:59;5.57;;;2.00;;
78903;SDS011;68291;49.602;8.722;2023-09-19T03:22:33;4.17;;;1.93;;
78903;SDS011;68291;49.602;8.722;2023-09-19T03:25:16;3.00;;;1.77;;
78903;SDS011;68291;49.602;8.722;2023-09-19T03:28:05;4.00;;;2.10;;
78903;SDS011;68291;49.602;8.722;2023-09-19T03:30:40;3.13;;;1.67;;
78903;SDS011;68291;49.602;8.722;2023-09-19T03:33:19;3.13;;;1.80;;
78903;SDS011;68291;49.602;8.722;2023-09-19T03:36:04;3.07;;;1.93;;
78903;SDS011;68291;49.602;8.722;2023-09-19T03:38:43;3.13;;;2.00;;
78903;SDS011;68291;49.602;8.722;2023-09-19T03:41:22;3.87;;;1.67;;
78903;SDS011;68291;49.602;8.722;2023-09-19T03:43:53;2.97;;;1.80;;
78903;SDS011;68291;49.602;8.722;2023-09-19T03:50:19;5.00;;;1.80;;
78903;SDS011;68291;49.602;8.722;2023-09-19T03:53:00;3.23;;;2.03;;
78903;SDS011;68291;49.602;8.722;2023-09-19T03:55:35;2.77;;;2.07;;
78903;SDS011;68291;49.602;8.722;2023-09-19T03:58:36;2.93;;;2.07;;
78903;SDS011;68291;49.602;8.722;2023-09-19T04:01:18;6.60;;;2.43;;
78903;SDS011;68291;49.602;8.722;2023-09-19T04:04:15;6.10;;;2.13;;
78903;SDS011;68291;49.602;8.722;2023-09-19T04:07:08;3.33;;;2.17;;
78903;SDS011;68291;49.602;8.722;2023-09-19T04:09:47;3.00;;;2.23;;
78903;SDS011;68291;49.602;8.722;2023-09-19T04:12:37;4.60;;;2.43;;
78903;SDS011;68291;49.602;8.722;2023-09-19T04:15:37;4.87;;;2.50;;
78903;SDS011;68291;49.602;8.722;2023-09-19T04:18:31;3.60;;;2.30;;
78903;SDS011;68291;49.602;8.722;2023-09-19T04:21:12;5.10;;;2.63;;
78903;SDS011;68291;49.602;8.722;2023-09-19T04:23:46;5.33;;;3.30;;
78903;SDS011;68291;49.602;8.722;2023-09-19T04:26:31;4.43;;;2.97;;
78903;SDS011;68291;49.602;8.722;2023-09-19T04:29:25;2.97;;;2.67;;
78903;SDS011;68291;49.602;8.722;2023-09-19T04:32:06;5.27;;;2.90;;
78903;SDS011;68291;49.602;8.722;2023-09-19T04:34:55;3.77;;;2.63;;
78903;SDS011;68291;49.602;8.722;2023-09-19T04:37:52;5.73;;;2.90;;
78903;SDS011;68291;49.602;8.722;2023-09-19T04:40:29;4.60;;;3.40;;
78903;SDS011;68291;49.602;8.722;2023-09-19T04:43:12;7.07;;;2.83;;
78903;SDS011;68291;49.602;8.722;2023-09-19T04:46:09;3.17;;;2.87;;
78903;SDS011;68291;49.602;8.722;2023-09-19T04:49:06;6.73;;;3.00;;
78903;SDS011;68291;49.602;8.722;2023-09-19T04:52:03;3.20;;;2.90;;
78903;SDS011;68291;49.602;8.722;2023-09-19T04:57:56;6.47;;;3.20;;
78903;SDS011;68291;49.602;8.722;2023-09-19T05:00:46;5.80;;;2.97;;
78903;SDS011;68291;49.602;8.722;2023-09-19T05:03:43;4.03;;;2.97;;
78903;SDS011;68291;49.602;8.722;2023-09-19T05:06:39;4.17;;;2.87;;
78903;SDS011;68291;49.602;8.722;2023-09-19T05:09:35;5.10;;;2.93;;
78903;SDS011;68291;49.602;8.722;2023-09-19T05:12:38;4.93;;;2.80;;
78903;SDS011;68291;49.602;8.722;2023-09-19T05:15:30;7.60;;;3.07;;
78903;SDS011;68291;49.602;8.722;2023-09-19T05:18:13;5.17;;;3.07;;
78903;SDS011;68291;49.602;8.722;2023-09-19T05:21:01;3.57;;;3.03;;
78903;SDS011;68291;49.602;8.722;2023-09-19T05:23:58;4.30;;;2.83;;
78903;SDS011;68291;49.602;8.722;2023-09-19T05:26:39;4.43;;;3.03;;
78903;SDS011;68291;49.602;8.722;2023-09-19T05:29:13;5.03;;;2.73;;
78903;SDS011;68291;49.602;8.722;2023-09-19T05:32:11;3.10;;;2.53;;
78903;SDS011;68291;49.602;8.722;2023-09-19T05:35:06;5.27;;;3.00;;
78903;SDS011;68291;49.602;8.722;2023-09-19T05:37:59;4.70;;;2.70;;
78903;SDS011;68291;49.602;8.722;2023-09-19T05:40:50;4.83;;;3.03;;
78903;SDS011;68291;49.602;8.722;2023-09-19T05:43:36;4.70;;;3.30;;
78903;SDS011;68291;49.602;8.722;2023-09-19T05:46:41;6.87;;;2.63;;
78903;SDS011;68291;49.602;8.722;2023-09-19T05:49:27;5.63;;;2.83;;
78903;SDS011;68291;49.602;8.722;2023-09-19T05:52:00;4.13;;;2.77;;
78903;SDS011;68291;49.602;8.722;2023-09-19T05:54:41;5.83;;;2.60;;
78903;SDS011;68291;49.602;8.722;2023-09-19T05:57:22;7.93;;;3.10;;
78903;SDS011;68291;49.602;8.722;2023-09-19T06:00:14;4.63;;;2.70;;
78903;SDS011;68291;49.602;8.722;2023-09-19T06:02:53;3.67;;;2.70;;
78903;SDS011;68291;49.602;8.722;2023-09-19T06:05:50;5.80;;;2.90;;
78903;SDS011;68291;49.602;8.722;2023-09-19T06:08:28;4.90;;;2.57;;
78903;SDS011;68291;49.602;8.722;2023-09-19T06:11:18;3.60;;;2.43;;
78903;SDS011;68291;49.602;8.722;2023-09-19T06:14:17;4.87;;;2.80;;
78903;SDS011;68291;49.602;8.722;2023-09-19T06:16:50;4.23;;;2.57;;
78903;SDS011;68291;49.602;8.722;2023-09-19T06:19:48;4.53;;;2.70;;
78903;SDS011;68291;49.602;8.722;2023-09-19T06:22:45;5.97;;;2.97;;
78903;SDS011;68291;49.602;8.722;2023-09-19T06:25:41;7.47;;;2.87;;
78903;SDS011;68291;49.602;8.722;2023-09-19T06:28:20;5.87;;;2.83;;
78903;SDS011;68291;49.602;8.722;2023-09-19T06:30:54;4.53;;;2.57;;
78903;SDS011;68291;49.602;8.722;2023-09-19T06:33:40;4.03;;;2.57;;
78903;SDS011;68291;49.602;8.722;2023-09-19T06:36:33;8.00;;;2.60;;
78903;SDS011;68291;49.602;8.722;2023-09-19T06:39:29;4.83;;;2.50;;
78903;SDS011;68291;49.602;8.722;2023-09-19T06:42:08;5.23;;;2.67;;
78903;SDS011;68291;49.602;8.722;2023-09-19T06:44:50;6.10;;;2.40;;
78903;SDS011;68291;49.602;8.722;2023-09-19T06:47:41;8.07;;;2.40;;
78903;SDS011;68291;49.602;8.722;2023-09-19T06:50:37;4.50;;;2.33;;
78903;SDS011;68291;49.602;8.722;2023-09-19T06:53:26;5.30;;;2.50;;
78903;SDS011;68291;49.602;8.722;2023-09-19T06:56:18;6.23;;;2.20;;
78903;SDS011;68291;49.602;8.722;2023-09-19T06:59:10;4.83;;;2.30;;
78903;SDS011;68291;49.602;8.722;2023-09-19T07:01:48;4.47;;;2.17;;
78903;SDS011;68291;49.602;8.722;2023-09-19T07:04:31;2.97;;;2.20;;
78903;SDS011;68291;49.602;8.722;2023-09-19T07:07:28;5.67;;;2.17;;
78903;SDS011;68291;49.602;8.722;2023-09-19T07:10:22;5.30;;;2.40;;
78903;SDS011;68291;49.602;8.722;2023-09-19T07:13:10;5.00;;;2.60;;
78903;SDS011;68291;49.602;8.722;2023-09-19T07:16:01;3.70;;;2.27;;
78903;SDS011;68291;49.602;8.722;2023-09-19T07:18:42;8.63;;;2.40;;
78903;SDS011;68291;49.602;8.722;2023-09-19T07:21:33;5.30;;;2.13;;
78903;SDS011;68291;49.602;8.722;2023-09-19T07:24:16;3.20;;;2.00;;
78903;SDS011;68291;49.602;8.722;2023-09-19T07:30:23;5.00;;;2.20;;
78903;SDS011;68291;49.602;8.722;2023-09-19T07:33:19;4.70;;;2.30;;
78903;SDS011;68291;49.602;8.722;2023-09-19T07:35:55;5.90;;;2.20;;
78903;SDS011;68291;49.602;8.722;2023-09-19T07:38:52;8.73;;;2.37;;
78903;SDS011;68291;49.602;8.722;2023-09-19T07:41:43;4.20;;;2.17;;
78903;SDS011;68291;49.602;8.722;2023-09-19T07:44:33;5.37;;;2.20;;
78903;SDS011;68291;49.602;8.722;2023-09-19T07:47:20;5.33;;;2.20;;
78903;SDS011;68291;49.602;8.722;2023-09-19T07:50:02;5.10;;;2.50;;
78903;SDS011;68291;49.602;8.722;2023-09-19T07:52:58;3.97;;;2.03;;
78903;SDS011;68291;49.602;8.722;2023-09-19T07:56:02;5.73;;;2.30;;
78903;SDS011;68291;49.602;8.722;2023-09-19T07:58:59;4.83;;;2.30;;
78903;SDS011;68291;49.602;8.722;2023-09-19T08:02:01;4.57;;;2.00;;
78903;SDS011;68291;49.602;8.722;2023-09-19T08:04:57;4.57;;;2.40;;
78903;SDS011;68291;49.602;8.722;2023-09-19T08:07:57;4.30;;;2.37;;
78903;SDS011;68291;49.602;8.722;2023-09-19T08:10:42;5.00;;;2.40;;
78903;SDS011;68291;49.602;8.722;2023-09-19T08:13:17;4.80;;;2.60;;
78903;SDS011;68291;49.602;8.722;2023-09-19T08:16:04;4.87;;;3.00;;
78903;SDS011;68291;49.602;8.722;2023-09-19T08:22:10;6.43;;;2.37;;
78903;SDS011;68291;49.602;8.722;2023-09-19T08:25:05;4.90;;;2.30;;
78903;SDS011;68291;49.602;8.722;2023-09-19T08:28:01;4.37;;;2.37;;
78903;SDS011;68291;49.602;8.722;2023-09-19T08:31:01;3.70;;;2.30;;
78903;SDS011;68291;49.602;8.722;2023-09-19T08:33:34;5.37;;;2.63;;
78903;SDS011;68291;49.602;8.722;2023-09-19T08:36:42;3.60;;;2.40;;
78903;SDS011;68291;49.602;8.722;2023-09-19T08:39:44;2.30;;;2.10;;
78903;SDS011;68291;49.602;8.722;2023-09-19T08:42:25;3.83;;;2.30;;
78903;SDS011;68291;49.602;8.722;2023-09-19T08:45:17;5.23;;;2.67;;
78903;SDS011;68291;49.602;8.722;2023-09-19T08:48:17;4.97;;;2.73;;
78903;SDS011;68291;49.602;8.722;2023-09-19T08:51:10;5.43;;;2.70;;
78903;SDS011;68291;49.602;8.722;2023-09-19T08:57:34;3.70;;;2.37;;
78903;SDS011;68291;49.602;8.722;2023-09-19T09:00:15;3.90;;;2.23;;
78903;SDS011;68291;49.602;8.722;2023-09-19T09:02:57;2.83;;;2.33;;
78903;SDS011;68291;49.602;8.722;2023-09-19T09:05:40;3.03;;;2.37;;
78903;SDS011;68291;49.602;8.722;2023-09-19T09:08:24;4.20;;;2.77;;
78903;SDS011;68291;49.602;8.722;2023-09-19T09:14:45;3.97;;;2.20;;
78903;SDS011;68291;49.602;8.722;2023-09-19T09:17:46;7.00;;;2.30;;
78903;SDS011;68291;49.602;8.722;2023-09-19T09:20:36;4.70;;;2.33;;
78903;SDS011;68291;49.602;8.722;2023-09-19T09:23:14;4.77;;;2.57;;
78903;SDS011;68291;49.602;8.722;2023-09-19T09:26:02;3.80;;;2.80;;
78903;SDS011;68291;49.602;8.722;2023-09-19T09:32:21;5.13;;;2.60;;
78903;SDS011;68291;49.602;8.722;2023-09-19T09:35:07;5.30;;;2.60;;
78903;SDS011;68291;49.602;8.722;2023-09-19T09:37:47;4.60;;;2.30;;
78903;SDS011;68291;49.602;8.722;2023-09-19T09:40:58;4.83;;;2.40;;
78903;SDS011;68291;49.602;8.722;2023-09-19T09:43:49;3.10;;;2.43;;
78903;SDS011;68291;49.602;8.722;2023-09-19T09:46:46;3.60;;;2.30;;
78903;SDS011;68291;49.602;8.722;2023-09-19T09:49:41;5.37;;;2.67;;
78903;SDS011;68291;49.602;8.722;2023-09-19T09:52:50;5.70;;;2.60;;
78903;SDS011;68291;49.602;8.722;2023-09-19T09:58:32;5.97;;;2.40;;
78903;SDS011;68291;49.602;8.722;2023-09-19T10:01:22;3.53;;;2.30;;
78903;SDS011;68291;49.602;8.722;2023-09-19T10:04:15;2.90;;;1.97;;
78903;SDS011;68291;49.602;8.722;2023-09-19T10:07:23;3.60;;;1.93;;
78903;SDS011;68291;49.602;8.722;2023-09-19T10:10:30;3.90;;;2.20;;
78903;SDS011;68291;49.602;8.722;2023-09-19T10:13:31;4.97;;;2.17;;
78903;SDS011;68291;49.602;8.722;2023-09-19T10:16:35;3.77;;;2.20;;
78903;SDS011;68291;49.602;8.722;2023-09-19T10:19:20;5.30;;;2.20;;
78903;SDS011;68291;49.602;8.722;2023-09-19T10:22:15;6.70;;;2.43;;
78903;SDS011;68291;49.602;8.722;2023-09-19T10:25:08;4.90;;;2.50;;
78903;SDS011;68291;49.602;8.722;2023-09-19T10:27:48;6.43;;;2.40;;
78903;SDS011;68291;49.602;8.722;2023-09-19T10:30:40;3.80;;;2.03;;
78903;SDS011;68291;49.602;8.722;2023-09-19T10:33:35;4.77;;;2.37;;
78903;SDS011;68291;49.602;8.722;2023-09-19T10:36:15;7.47;;;2.57;;
78903;SDS011;68291;49.602;8.722;2023-09-19T10:38:56;6.63;;;2.40;;
78903;SDS011;68291;49.602;8.722;2023-09-19T10:41:36;3.20;;;2.20;;
78903;SDS011;68291;49.602;8.722;2023-09-19T10:44:30;4.43;;;2.37;;
78903;SDS011;68291;49.602;8.722;2023-09-19T10:47:09;3.90;;;1.80;;
78903;SDS011;68291;49.602;8.722;2023-09-19T10:50:00;5.27;;;2.10;;
78903;SDS011;68291;49.602;8.722;2023-09-19T10:52:49;4.83;;;2.17;;
78903;SDS011;68291;49.602;8.722;2023-09-19T10:55:37;2.97;;;1.83;;
78903;SDS011;68291;49.602;8.722;2023-09-19T10:58:25;4.87;;;2.13;;
78903;SDS011;68291;49.602;8.722;2023-09-19T11:01:08;4.10;;;2.10;;
78903;SDS011;68291;49.602;8.722;2023-09-19T11:03:49;2.97;;;2.07;;
78903;SDS011;68291;49.602;8.722;2023-09-19T11:07:08;3.53;;;2.20;;
78903;SDS011;68291;49.602;8.722;2023-09-19T11:09:50;4.67;;;2.10;;
78903;SDS011;68291;49.602;8.722;2023-09-19T11:12:48;6.37;;;1.83;;
78903;SDS011;68291;49.602;8.722;2023-09-19T11:18:54;2.90;;;1.90;;
78903;SDS011;68291;49.602;8.722;2023-09-19T11:21:42;4.53;;;1.87;;
78903;SDS011;68291;49.602;8.722;2023-09-19T11:24:50;7.00;;;1.80;;
78903;SDS011;68291;49.602;8.722;2023-09-19T11:27:31;3.47;;;1.90;;
78903;SDS011;68291;49.602;8.722;2023-09-19T11:30:27;4.27;;;1.70;;
78903;SDS011;68291;49.602;8.722;2023-09-19T11:33:16;4.57;;;1.83;;
78903;SDS011;68291;49.602;8.722;2023-09-19T11:36:01;4.63;;;2.00;;
78903;SDS011;68291;49.602;8.722;2023-09-19T11:38:58;4.10;;;1.83;;
78903;SDS011;68291;49.602;8.722;2023-09-19T11:41:56;4.57;;;1.90;;
78903;SDS011;68291;49.602;8.722;2023-09-19T11:44:47;4.83;;;1.70;;
78903;SDS011;68291;49.602;8.722;2023-09-19T11:47:38;4.50;;;1.90;;
78903;SDS011;68291;49.602;8.722;2023-09-19T11:50:19;3.83;;;1.90;;
78903;SDS011;68291;49.602;8.722;2023-09-19T11:53:10;3.70;;;2.00;;
78903;SDS011;68291;49.602;8.722;2023-09-19T11:55:50;4.57;;;2.10;;
78903;SDS011;68291;49.602;8.722;2023-09-19T12:01:33;4.73;;;1.90;;
78903;SDS011;68291;49.602;8.722;2023-09-19T12:04:10;2.80;;;1.63;;
78903;SDS011;68291;49.602;8.722;2023-09-19T12:07:00;3.00;;;1.53;;
78903;SDS011;68291;49.602;8.722;2023-09-19T12:09:47;3.93;;;1.80;;
78903;SDS011;68291;49.602;8.722;2023-09-19T12:12:58;4.37;;;1.70;;
78903;SDS011;68291;49.602;8.722;2023-09-19T12:15:59;5.57;;;1.50;;
78903;SDS011;68291;49.602;8.722;2023-09-19T12:18:36;2.93;;;1.70;;
78903;SDS011;68291;49.602;8.722;2023-09-19T12:21:33;3.00;;;1.60;;
78903;SDS011;68291;49.602;8.722;2023-09-19T12:24:24;3.47;;;1.60;;
78903;SDS011;68291;49.602;8.722;2023-09-19T12:27:19;2.87;;;1.60;;
78903;SDS011;68291;49.602;8.722;2023-09-19T12:30:00;3.17;;;1.40;;
78903;SDS011;68291;49.602;8.722;2023-09-19T12:33:18;4.57;;;1.97;;
78903;SDS011;68291;49.602;8.722;2023-09-19T12:36:00;2.87;;;1.77;;
78903;SDS011;68291;49.602;8.722;2023-09-19T12:38:54;2.50;;;1.60;;
78903;SDS011;68291;49.602;8.722;2023-09-19T12:41:42;4.33;;;1.63;;
78903;SDS011;68291;49.602;8.722;2023-09-19T12:44:19;2.93;;;1.70;;
78903;SDS011;68291;49.602;8.722;2023-09-19T12:47:16;3.10;;;1.60;;
78903;SDS011;68291;49.602;8.722;2023-09-19T12:50:16;3.27;;;1.60;;
78903;SDS011;68291;49.602;8.722;2023-09-19T12:53:25;5.90;;;1.90;;
78903;SDS011;68291;49.602;8.722;2023-09-19T12:56:25;2.33;;;1.70;;
78903;SDS011;68291;49.602;8.722;2023-09-19T12:59:05;3.57;;;1.90;;
78903;SDS011;68291;49.602;8.722;2023-09-19T13:01:46;3.90;;;1.90;;
78903;SDS011;68291;49.602;8.722;2023-09-19T13:04:42;2.83;;;1.73;;
78903;SDS011;68291;49.602;8.722;2023-09-19T13:07:47;3.13;;;1.60;;
78903;SDS011;68291;49.602;8.722;2023-09-19T13:10:25;3.57;;;1.60;;
78903;SDS011;68291;49.602;8.722;2023-09-19T13:13:23;4.33;;;1.77;;
78903;SDS011;68291;49.602;8.722;2023-09-19T13:16:13;3.17;;;1.80;;
78903;SDS011;68291;49.602;8.722;2023-09-19T13:19:09;3.97;;;1.90;;
78903;SDS011;68291;49.602;8.722;2023-09-19T13:22:05;4.07;;;1.73;;
78903;SDS011;68291;49.602;8.722;2023-09-19T13:25:20;2.33;;;1.43;;
78903;SDS011;68291;49.602;8.722;2023-09-19T13:28:17;4.50;;;1.80;;
78903;SDS011;68291;49.602;8.722;2023-09-19T13:31:06;3.33;;;1.43;;
78903;SDS011;68291;49.602;8.722;2023-09-19T13:33:45;22.00;;;3.27;;
78903;SDS011;68291;49.602;8.722;2023-09-19T13:36:23;4.10;;;1.70;;
78903;SDS011;68291;49.602;8.722;2023-09-19T13:39:17;2.57;;;1.70;;
78903;SDS011;68291;49.602;8.722;2023-09-19T13:42:03;2.23;;;1.70;;
78903;SDS011;68291;49.602;8.722;2023-09-19T13:44:47;2.60;;;1.70;;
78903;SDS011;68291;49.602;8.722;2023-09-19T13:47:39;4.40;;;1.57;;
78903;SDS011;68291;49.602;8.722;2023-09-19T13:50:26;3.60;;;1.53;;
78903;SDS011;68291;49.602;8.722;2023-09-19T13:53:06;6.40;;;1.70;;
78903;SDS011;68291;49.602;8.722;2023-09-19T13:55:47;3.13;;;1.90;;
78903;SDS011;68291;49.602;8.722;2023-09-19T13:58:34;3.20;;;1.70;;
78903;SDS011;68291;49.602;8.722;2023-09-19T14:01:19;2.40;;;1.70;;
78903;SDS011;68291;49.602;8.722;2023-09-19T14:03:57;2.27;;;1.40;;
78903;SDS011;68291;49.602;8.722;2023-09-19T14:06:41;2.90;;;1.50;;
78903;SDS011;68291;49.602;8.722;2023-09-19T14:09:23;3.80;;;1.63;;
78903;SDS011;68291;49.602;8.722;2023-09-19T14:12:10;2.23;;;1.30;;
78903;SDS011;68291;49.602;8.722;2023-09-19T14:18:04;2.77;;;1.70;;
78903;SDS011;68291;49.602;8.722;2023-09-19T14:20:42;5.13;;;1.60;;
78903;SDS011;68291;49.602;8.722;2023-09-19T14:23:22;2.93;;;1.87;;
78903;SDS011;68291;49.602;8.722;2023-09-19T14:25:54;4.80;;;1.93;;
78903;SDS011;68291;49.602;8.722;2023-09-19T14:28:30;2.93;;;1.50;;
78903;SDS011;68291;49.602;8.722;2023-09-19T14:31:27;2.53;;;1.67;;
78903;SDS011;68291;49.602;8.722;2023-09-19T14:34:24;2.83;;;1.70;;
78903;SDS011;68291;49.602;8.722;2023-09-19T14:37:10;2.13;;;1.60;;
78903;SDS011;68291;49.602;8.722;2023-09-19T14:39:42;2.07;;;1.43;;
78903;SDS011;68291;49.602;8.722;2023-09-19T14:42:21;3.90;;;1.53;;
78903;SDS011;68291;49.602;8.722;2023-09-19T14:45:02;3.70;;;1.60;;
78903;SDS011;68291;49.602;8.722;2023-09-19T14:47:50;2.13;;;1.60;;
78903;SDS011;68291;49.602;8.722;2023-09-19T14:50:47;4.77;;;1.50;;
78903;SDS011;68291;49.602;8.722;2023-09-19T14:53:30;2.90;;;1.50;;
78903;SDS011;68291;49.602;8.722;2023-09-19T14:56:10;1.50;;;1.27;;
78903;SDS011;68291;49.602;8.722;2023-09-19T14:59:15;3.90;;;1.43;;
78903;SDS011;68291;49.602;8.722;2023-09-19T15:02:04;3.10;;;1.63;;
78903;SDS011;68291;49.602;8.722;2023-09-19T15:05:07;2.27;;;1.50;;
78903;SDS011;68291;49.602;8.722;2023-09-19T15:07:46;3.20;;;1.80;;
78903;SDS011;68291;49.602;8.722;2023-09-19T15:10:25;2.07;;;1.37;;
78903;SDS011;68291;49.602;8.722;2023-09-19T15:13:01;2.40;;;1.67;;
78903;SDS011;68291;49.602;8.722;2023-09-19T15:15:45;2.83;;;1.67;;
78903;SDS011;68291;49.602;8.722;2023-09-19T15:18:19;2.33;;;1.50;;
78903;SDS011;68291;49.602;8.722;2023-09-19T15:21:08;4.37;;;1.73;;
78903;SDS011;68291;49.602;8.722;2023-09-19T15:23:45;3.43;;;1.60;;
78903;SDS011;68291;49.602;8.722;2023-09-19T15:26:25;2.70;;;1.50;;
78903;SDS011;68291;49.602;8.722;2023-09-19T15:29:11;3.57;;;1.47;;
78903;SDS011;68291;49.602;8.722;2023-09-19T15:31:45;2.03;;;1.40;;
78903;SDS011;68291;49.602;8.722;2023-09-19T15:34:26;3.93;;;1.47;;
78903;SDS011;68291;49.602;8.722;2023-09-19T15:37:04;1.90;;;1.30;;
78903;SDS011;68291;49.602;8.722;2023-09-19T15:39:38;2.87;;;1.10;;
78903;SDS011;68291;49.602;8.722;2023-09-19T15:42:21;1.63;;;1.47;;
78903;SDS011;68291;49.602;8.722;2023-09-19T15:45:10;1.80;;;1.30;;
78903;SDS011;68291;49.602;8.722;2023-09-19T15:48:06;2.53;;;1.37;;
78903;SDS011;68291;49.602;8.722;2023-09-19T15:51:03;2.03;;;1.50;;
78903;SDS011;68291;49.602;8.722;2023-09-19T15:53:51;4.03;;;1.60;;
78903;SDS011;68291;49.602;8.722;2023-09-19T15:56:43;2.90;;;1.50;;
78903;SDS011;68291;49.602;8.722;2023-09-19T15:59:39;6.10;;;1.47;;
78903;SDS011;68291;49.602;8.722;2023-09-19T16:02:26;2.93;;;1.30;;
78903;SDS011;68291;49.602;8.722;2023-09-19T16:05:15;2.07;;;1.23;;
78903;SDS011;68291;49.602;8.722;2023-09-19T16:08:11;1.67;;;1.20;;
78903;SDS011;68291;49.602;8.722;2023-09-19T16:11:08;2.90;;;1.43;;
78903;SDS011;68291;49.602;8.722;2023-09-19T16:14:14;2.10;;;1.30;;
78903;SDS011;68291;49.602;8.722;2023-09-19T16:17:06;1.77;;;1.40;;
78903;SDS011;68291;49.602;8.722;2023-09-19T16:20:02;2.00;;;1.30;;
78903;SDS011;68291;49.602;8.722;2023-09-19T16:22:54;2.37;;;1.20;;
78903;SDS011;68291;49.602;8.722;2023-09-19T16:25:55;1.20;;;1.10;;
78903;SDS011;68291;49.602;8.722;2023-09-19T16:28:59;2.93;;;1.50;;
78903;SDS011;68291;49.602;8.722;2023-09-19T16:31:42;1.93;;;1.20;;
78903;SDS011;68291;49.602;8.722;2023-09-19T16:34:17;2.47;;;1.47;;
78903;SDS011;68291;49.602;8.722;2023-09-19T16:36:59;3.90;;;1.80;;
78903;SDS011;68291;49.602;8.722;2023-09-19T16:39:47;3.17;;;1.23;;
78903;SDS011;68291;49.602;8.722;2023-09-19T16:42:34;1.97;;;1.30;;
78903;SDS011;68291;49.602;8.722;2023-09-19T16:45:12;2.33;;;1.63;;
78903;SDS011;68291;49.602;8.722;2023-09-19T16:47:59;1.90;;;1.30;;
78903;SDS011;68291;49.602;8.722;2023-09-19T16:50:59;3.80;;;1.33;;
78903;SDS011;68291;49.602;8.722;2023-09-19T16:53:37;2.90;;;1.70;;
78903;SDS011;68291;49.602;8.722;2023-09-19T16:56:23;2.50;;;1.70;;
78903;SDS011;68291;49.602;8.722;2023-09-19T16:59:07;3.13;;;1.40;;
78903;SDS011;68291;49.602;8.722;2023-09-19T17:02:13;2.37;;;1.40;;
78903;SDS011;68291;49.602;8.722;2023-09-19T17:04:58;1.93;;;1.40;;
78903;SDS011;68291;49.602;8.722;2023-09-19T17:07:53;1.73;;;1.13;;
78903;SDS011;68291;49.602;8.722;2023-09-19T17:10:34;1.70;;;1.40;;
78903;SDS011;68291;49.602;8.722;2023-09-19T17:13:46;2.87;;;1.60;;
78903;SDS011;68291;49.602;8.722;2023-09-19T17:16:43;1.43;;;1.30;;
78903;SDS011;68291;49.602;8.722;2023-09-19T17:19:35;2.70;;;1.40;;
78903;SDS011;68291;49.602;8.722;2023-09-19T17:22:27;2.67;;;1.23;;
78903;SDS011;68291;49.602;8.722;2023-09-19T17:25:11;3.77;;;1.60;;
78903;SDS011;68291;49.602;8.722;2023-09-19T17:27:44;2.10;;;1.50;;
78903;SDS011;68291;49.602;8.722;2023-09-19T17:30:39;2.20;;;1.30;;
78903;SDS011;68291;49.602;8.722;2023-09-19T17:33:43;1.63;;;1.43;;
78903;SDS011;68291;49.602;8.722;2023-09-19T17:36:29;2.03;;;1.20;;
78903;SDS011;68291;49.602;8.722;2023-09-19T17:39:14;2.40;;;1.40;;
78903;SDS011;68291;49.602;8.722;2023-09-19T17:41:56;1.67;;;1.23;;
78903;SDS011;68291;49.602;8.722;2023-09-19T17:44:38;3.40;;;1.67;;
78903;SDS011;68291;49.602;8.722;2023-09-19T17:47:19;1.33;;;1.23;;
78903;SDS011;68291;49.602;8.722;2023-09-19T17:53:31;3.67;;;1.67;;
78903;SDS011;68291;49.602;8.722;2023-09-19T17:56:29;1.93;;;1.43;;
78903;SDS011;68291;49.602;8.722;2023-09-19T17:59:12;4.77;;;1.83;;